createdAt,value
2018-11-05T00:01:35.106Z,6.90
2018-11-05T00:06:19.138Z,6.40
2018-11-05T00:11:02.054Z,6.93
2018-11-05T00:15:45.243Z,13.67
2018-11-05T00:20:28.189Z,5.63
2018-11-05T00:25:13.899Z,5.77
2018-11-05T00:29:56.786Z,7.47
2018-11-05T00:34:40.780Z,4.40
2018-11-05T00:39:23.674Z,4.33
2018-11-05T00:44:07.027Z,3.83
2018-11-05T00:48:49.904Z,4.17
2018-11-05T00:53:32.819Z,4.90
2018-11-05T00:58:15.690Z,9.70
2018-11-05T01:02:59.609Z,5.37
2018-11-05T01:07:43.436Z,5.03
2018-11-05T01:12:27.455Z,6.43
2018-11-05T01:17:10.390Z,5.67
2018-11-05T01:21:55.600Z,10.67
2018-11-05T01:26:38.467Z,3.90
2018-11-05T01:31:21.382Z,6.87
2018-11-05T01:36:04.489Z,5.90
2018-11-05T01:40:47.385Z,4.23
2018-11-05T01:45:30.432Z,4.33
2018-11-05T01:50:15.010Z,6.80
2018-11-05T01:54:57.976Z,6.27
2018-11-05T01:59:40.836Z,4.70
2018-11-05T02:04:23.759Z,8.47
2018-11-05T02:09:08.070Z,4.77
2018-11-05T02:13:52.097Z,6.77
2018-11-05T02:18:34.992Z,4.60
2018-11-05T02:23:19.110Z,7.33
2018-11-05T02:28:01.959Z,5.53
2018-11-05T02:32:45.299Z,7.17
2018-11-05T02:37:28.208Z,4.40
2018-11-05T02:42:12.385Z,8.43
2018-11-05T02:46:55.297Z,3.93
2018-11-05T02:51:38.168Z,7.67
2018-11-05T02:56:21.043Z,2.93
2018-11-05T03:01:03.959Z,6.90
2018-11-05T03:05:47.102Z,3.73
2018-11-05T03:10:29.978Z,4.60
2018-11-05T03:15:14.324Z,4.57
2018-11-05T03:19:57.248Z,6.53
2018-11-05T03:24:41.238Z,6.00
2018-11-05T03:29:24.450Z,5.93
2018-11-05T03:34:07.496Z,4.10
2018-11-05T03:38:50.431Z,4.57
2018-11-05T03:43:33.483Z,3.27
2018-11-05T03:48:16.361Z,4.23
2018-11-05T03:53:00.271Z,4.27
2018-11-05T03:57:43.187Z,3.83
2018-11-05T04:02:26.341Z,4.23
2018-11-05T04:07:09.212Z,5.07
2018-11-05T04:11:53.134Z,8.23
2018-11-05T04:16:36.012Z,3.30
2018-11-05T04:21:26.963Z,4.57
2018-11-05T04:26:09.882Z,6.40
2018-11-05T04:30:52.794Z,6.57
2018-11-05T04:35:36.702Z,4.00
2018-11-05T04:40:19.593Z,4.97
2018-11-05T04:45:02.586Z,2.83
2018-11-05T04:49:45.478Z,8.57
2018-11-05T04:54:28.518Z,11.07
2018-11-05T04:59:11.429Z,7.73
2018-11-05T05:03:54.499Z,10.23
2018-11-05T05:08:37.417Z,7.13
2018-11-05T05:13:22.360Z,7.60
2018-11-05T05:18:05.426Z,5.80
2018-11-05T05:22:48.456Z,13.13
2018-11-05T05:27:31.267Z,8.43
2018-11-05T05:32:15.154Z,7.43
2018-11-05T05:36:58.056Z,4.17
2018-11-05T05:41:42.009Z,7.80
2018-11-05T05:46:24.873Z,9.60
2018-11-05T05:51:08.987Z,8.20
2018-11-05T05:55:51.868Z,9.37
2018-11-05T06:00:34.734Z,10.00
2018-11-05T06:05:17.662Z,17.17
2018-11-05T06:10:00.550Z,13.27
2018-11-05T06:14:43.779Z,16.43
2018-11-05T06:19:26.654Z,13.93
2018-11-05T06:24:09.674Z,6.60
2018-11-05T06:28:52.575Z,9.37
2018-11-05T06:33:35.727Z,18.73
2018-11-05T06:38:18.650Z,13.20
2018-11-05T06:43:02.789Z,8.80
2018-11-05T06:47:46.066Z,10.13
2018-11-05T06:52:30.043Z,6.73
2018-11-05T06:57:12.943Z,4.53
2018-11-05T07:01:56.907Z,4.97
2018-11-05T07:06:39.837Z,4.37
2018-11-05T07:11:22.947Z,3.47
2018-11-05T07:16:05.850Z,6.13
2018-11-05T07:20:49.915Z,6.13
2018-11-05T07:25:32.855Z,4.47
2018-11-05T07:30:18.414Z,14.77
2018-11-05T07:35:02.431Z,8.13
2018-11-05T07:39:45.304Z,5.10
2018-11-05T07:44:28.442Z,5.60
2018-11-05T07:49:11.348Z,4.30
2018-11-05T07:53:55.501Z,4.10
2018-11-05T07:58:38.388Z,6.97
2018-11-05T08:03:22.248Z,7.23
2018-11-05T08:08:06.080Z,3.33
2018-11-05T08:12:53.415Z,7.00
2018-11-05T08:17:36.274Z,6.20
2018-11-05T08:22:22.469Z,5.40
2018-11-05T08:27:06.268Z,3.70
2018-11-05T08:31:49.670Z,6.23
2018-11-05T08:36:33.110Z,6.37
2018-11-05T08:41:17.150Z,6.20
2018-11-05T08:46:00.066Z,4.97
2018-11-05T08:50:44.307Z,3.97
2018-11-05T08:55:27.756Z,9.80
2018-11-05T09:00:16.321Z,5.53
2018-11-05T09:04:59.212Z,4.40
2018-11-05T09:09:42.545Z,9.37
2018-11-05T09:14:25.455Z,8.37
2018-11-05T09:19:08.393Z,2.80
2018-11-05T09:23:52.239Z,6.17
2018-11-05T09:28:35.158Z,6.40
2018-11-05T09:33:19.039Z,5.27
2018-11-05T09:38:01.912Z,7.80
2018-11-05T09:42:48.912Z,5.17
2018-11-05T09:47:31.706Z,6.37
2018-11-05T09:52:15.717Z,5.60
2018-11-05T09:56:58.602Z,9.43
2018-11-05T10:01:43.498Z,6.00
2018-11-05T10:06:26.822Z,6.10
2018-11-05T10:11:10.829Z,5.47
2018-11-05T10:15:53.710Z,7.17
2018-11-05T10:20:39.921Z,7.77
2018-11-05T10:25:22.839Z,4.20
2018-11-05T10:30:10.973Z,11.37
2018-11-05T10:34:53.855Z,12.80
2018-11-05T10:39:36.745Z,9.60
2018-11-05T10:44:19.697Z,7.43
2018-11-05T10:49:02.611Z,6.43
2018-11-05T10:53:46.501Z,10.00
2018-11-05T10:58:29.424Z,4.63
2018-11-05T11:03:16.625Z,9.43
2018-11-05T11:08:00.440Z,6.50
2018-11-05T11:12:44.421Z,6.50
2018-11-05T11:17:27.290Z,4.77
2018-11-05T11:22:11.311Z,6.60
2018-11-05T11:26:54.196Z,6.70
2018-11-05T11:31:37.610Z,5.13
2018-11-05T11:36:20.558Z,9.10
2018-11-05T11:41:03.562Z,6.13
2018-11-05T11:45:46.448Z,7.60
2018-11-05T11:50:29.636Z,10.60
2018-11-05T11:55:14.393Z,7.17
2018-11-05T11:59:57.264Z,5.77
2018-11-05T12:04:41.167Z,7.63
2018-11-05T12:09:24.315Z,5.33
2018-11-05T12:14:07.570Z,4.47
2018-11-05T12:18:50.391Z,9.77
2018-11-05T12:23:34.346Z,5.70
2018-11-05T12:28:17.247Z,8.47
2018-11-05T12:33:03.347Z,8.23
2018-11-05T12:37:47.507Z,7.83
2018-11-05T12:42:33.581Z,14.03
2018-11-05T12:47:16.534Z,9.57
2018-11-05T12:52:01.611Z,6.63
2018-11-05T12:56:44.488Z,5.50
2018-11-05T13:01:31.900Z,5.97
2018-11-05T13:06:14.799Z,5.47
2018-11-05T13:10:58.761Z,11.07
2018-11-05T13:15:41.687Z,16.37
2018-11-05T13:20:24.906Z,11.57
2018-11-05T13:25:07.858Z,11.60
2018-11-05T13:29:54.534Z,7.70
2018-11-05T13:34:37.420Z,10.60
2018-11-05T13:39:20.291Z,7.20
2018-11-05T13:44:03.403Z,4.50
2018-11-05T13:48:47.050Z,8.73
2018-11-05T13:53:32.371Z,7.90
2018-11-05T13:58:15.288Z,7.17
2018-11-05T14:03:01.512Z,8.50
2018-11-05T14:07:44.480Z,6.73
2018-11-05T14:12:28.341Z,9.73
2018-11-05T14:17:11.222Z,10.40
2018-11-05T14:21:55.337Z,7.30
2018-11-05T14:26:38.212Z,9.33
2018-11-05T14:31:22.209Z,9.93
2018-11-05T14:36:05.158Z,9.07
2018-11-05T14:40:48.154Z,10.53
2018-11-05T14:45:31.860Z,9.23
2018-11-05T14:50:17.159Z,13.73
2018-11-05T14:55:00.046Z,9.30
2018-11-05T14:59:46.602Z,19.93
2018-11-05T15:04:29.482Z,10.20
2018-11-05T15:09:13.033Z,12.53
2018-11-05T15:13:55.993Z,13.00
2018-11-05T15:18:38.927Z,16.13
2018-11-05T15:23:22.766Z,14.37
2018-11-05T15:28:05.742Z,9.07
2018-11-05T15:32:49.924Z,12.53
2018-11-05T15:37:32.790Z,23.53
2018-11-05T15:42:16.919Z,19.63
2018-11-05T15:46:59.807Z,16.80
2018-11-05T15:51:44.891Z,9.73
2018-11-05T15:56:28.523Z,11.03
2018-11-05T16:01:15.274Z,15.77
2018-11-05T16:05:58.191Z,10.00
2018-11-05T16:10:41.107Z,11.57
2018-11-05T16:15:24.056Z,22.20
2018-11-05T16:20:11.115Z,16.13
2018-11-05T16:24:54.011Z,13.30
2018-11-05T16:29:37.012Z,8.73
2018-11-05T16:34:19.899Z,10.80
2018-11-05T16:39:04.211Z,22.80
2018-11-05T16:43:47.209Z,12.73
2018-11-05T16:48:31.439Z,10.30
2018-11-05T16:53:16.270Z,10.30
2018-11-05T16:57:59.257Z,14.33
2018-11-05T17:02:44.954Z,16.93
2018-11-05T17:07:27.737Z,22.83
2018-11-05T17:12:12.736Z,7.90
2018-11-05T17:16:55.687Z,6.07
2018-11-05T17:21:40.772Z,12.90
2018-11-05T17:26:23.765Z,9.90
2018-11-05T17:31:12.136Z,15.17
2018-11-05T17:35:55.061Z,19.20
2018-11-05T17:40:39.194Z,14.40
2018-11-05T17:45:22.237Z,28.70
2018-11-05T17:50:07.199Z,32.70
2018-11-05T17:54:50.135Z,41.17
2018-11-05T17:59:34.864Z,56.13
2018-11-05T18:04:17.762Z,62.63
2018-11-05T18:09:01.117Z,45.37
2018-11-05T18:13:44.328Z,55.77
2018-11-05T18:18:27.556Z,33.87
2018-11-05T18:23:14.824Z,19.70
2018-11-05T18:27:57.771Z,15.50
2018-11-05T18:32:42.743Z,16.80
2018-11-05T18:37:25.692Z,15.53
2018-11-05T18:42:11.458Z,21.50
2018-11-05T18:46:54.411Z,14.60
2018-11-05T18:51:38.604Z,12.47
2018-11-05T18:56:21.555Z,18.40
2018-11-05T19:01:05.260Z,25.43
2018-11-05T19:05:48.994Z,26.53
2018-11-05T19:10:32.850Z,17.73
2018-11-05T19:15:16.984Z,18.00
2018-11-05T19:20:01.051Z,19.80
2018-11-05T19:24:44.555Z,16.53
2018-11-05T19:29:28.520Z,16.77
2018-11-05T19:34:11.723Z,23.33
2018-11-05T19:38:54.789Z,18.23
2018-11-05T19:43:38.873Z,19.63
2018-11-05T19:48:21.777Z,21.33
2018-11-05T19:58:15.307Z,14.67
2018-11-05T20:03:00.623Z,19.17
2018-11-05T20:07:44.275Z,16.10
2018-11-05T20:12:28.283Z,17.10
2018-11-05T20:17:11.210Z,18.50
2018-11-05T20:21:54.284Z,15.60
2018-11-05T20:26:37.217Z,18.53
2018-11-05T20:31:20.565Z,23.10
2018-11-05T20:36:03.264Z,18.47
2018-11-05T20:40:46.427Z,22.97
2018-11-05T20:45:29.339Z,19.97
2018-11-05T20:50:14.310Z,22.70
2018-11-05T20:54:57.201Z,21.50
2018-11-05T20:59:43.492Z,19.47
2018-11-05T21:04:26.398Z,30.33
2018-11-05T21:09:11.661Z,17.23
2018-11-05T21:13:54.647Z,25.93
2018-11-05T21:18:37.536Z,24.23
2018-11-05T21:23:20.483Z,22.87
2018-11-05T21:28:03.394Z,25.87
2018-11-05T21:32:47.584Z,23.00
2018-11-05T21:37:30.424Z,25.93
2018-11-05T21:42:14.591Z,32.83
2018-11-05T21:46:57.486Z,32.03
2018-11-05T21:51:40.583Z,27.23
2018-11-05T21:56:23.461Z,25.97
2018-11-05T22:01:09.899Z,32.27
2018-11-05T22:05:54.858Z,35.13
2018-11-05T22:10:38.007Z,34.43
2018-11-05T22:15:20.982Z,34.73
2018-11-05T22:20:04.771Z,34.27
2018-11-05T22:24:47.647Z,30.27
2018-11-05T22:29:30.544Z,36.50
2018-11-05T22:35:43.629Z,33.53
2018-11-05T22:40:26.704Z,37.90
2018-11-05T22:45:10.997Z,30.60
2018-11-05T22:49:54.002Z,37.07
2018-11-05T22:54:36.922Z,30.60
2018-11-05T22:59:23.566Z,35.67
2018-11-05T23:04:06.498Z,33.50
2018-11-05T23:08:49.614Z,30.50
2018-11-05T23:13:32.466Z,38.67
2018-11-05T23:18:15.383Z,33.80
2018-11-05T23:22:58.286Z,32.43
2018-11-05T23:36:39.861Z,31.67
2018-11-05T23:41:22.878Z,34.30
2018-11-05T23:46:05.961Z,33.43
2018-11-05T23:50:52.766Z,31.23
2018-11-05T23:55:35.664Z,24.60
